createdAt,value
2023-03-17T00:03:05.347Z,5.43
2023-03-17T00:13:12.273Z,5.83
2023-03-17T00:23:21.587Z,4.93
2023-03-17T00:33:26.917Z,6.13
2023-03-17T00:43:30.641Z,4.90
2023-03-17T00:53:34.231Z,4.20
2023-03-17T01:03:37.382Z,3.92
2023-03-17T01:13:40.544Z,4.63
2023-03-17T01:23:43.698Z,4.50
2023-03-17T01:33:47.421Z,5.25
2023-03-17T01:43:49.981Z,4.90
2023-03-17T01:53:53.727Z,6.07
2023-03-17T02:03:57.163Z,6.30
2023-03-17T02:13:59.837Z,4.25
2023-03-17T02:24:07.784Z,4.10
2023-03-17T02:34:11.804Z,2.97
2023-03-17T02:44:14.172Z,3.20
2023-03-17T02:54:16.654Z,3.97
2023-03-17T03:04:20.397Z,2.87
2023-03-17T03:14:23.809Z,3.40
2023-03-17T03:24:26.177Z,3.77
2023-03-17T03:34:29.184Z,3.87
2023-03-17T03:44:31.745Z,4.13
2023-03-17T03:54:34.188Z,3.28
2023-03-17T04:04:37.079Z,3.07
2023-03-17T04:14:39.576Z,3.87
2023-03-17T04:24:42.199Z,3.05
2023-03-17T04:34:45.008Z,4.83
2023-03-17T04:44:47.554Z,4.13
2023-03-17T04:54:50.256Z,4.53
2023-03-17T05:04:52.767Z,5.43
2023-03-17T05:14:55.539Z,4.00
2023-03-17T05:24:58.063Z,5.00
2023-03-17T05:35:01.280Z,5.32
2023-03-17T05:45:05.755Z,5.83
2023-03-17T05:55:09.388Z,3.93
2023-03-17T06:05:12.412Z,3.72
2023-03-17T06:15:17.048Z,3.37
2023-03-17T06:25:19.891Z,4.90
2023-03-17T06:35:31.657Z,4.03
2023-03-17T06:46:07.485Z,3.87
2023-03-17T06:56:23.642Z,3.37
2023-03-17T07:06:33.660Z,3.83
2023-03-17T07:16:37.672Z,3.63
2023-03-17T07:26:40.401Z,3.53
2023-03-17T07:36:43.061Z,3.47
2023-03-17T07:46:46.428Z,2.85
2023-03-17T07:56:48.943Z,4.30
2023-03-17T08:06:52.365Z,2.93
2023-03-17T08:16:55.892Z,3.78
2023-03-17T08:27:00.528Z,3.17
2023-03-17T08:37:03.678Z,3.17
2023-03-17T08:47:06.723Z,3.95
2023-03-17T08:57:09.414Z,2.20
2023-03-17T09:07:11.991Z,2.97
2023-03-17T09:17:15.399Z,2.37
2023-03-17T09:27:17.949Z,2.40
2023-03-17T09:37:20.523Z,3.13
2023-03-17T09:47:49.163Z,2.83
2023-03-17T09:57:56.015Z,3.33
2023-03-17T10:08:15.779Z,2.47
2023-03-17T10:18:44.004Z,3.23
2023-03-17T10:28:46.789Z,2.58
2023-03-17T10:38:54.479Z,2.63
2023-03-17T10:49:06.248Z,2.53
2023-03-17T10:59:44.312Z,3.07
2023-03-17T11:09:52.608Z,2.70
2023-03-17T11:20:24.706Z,2.90
2023-03-17T11:30:42.920Z,2.83
2023-03-17T11:41:13.484Z,2.60
2023-03-17T11:51:22.939Z,2.37
2023-03-17T12:01:32.490Z,4.23
2023-03-17T12:11:40.729Z,3.08
2023-03-17T12:21:55.849Z,2.60
2023-03-17T12:32:09.046Z,3.17
2023-03-17T12:42:35.887Z,3.33
2023-03-17T12:53:15.685Z,3.53
2023-03-17T13:03:32.135Z,3.00
2023-03-17T13:13:40.690Z,5.43
2023-03-17T13:23:46.262Z,8.52
2023-03-17T13:33:55.359Z,2.10
2023-03-17T13:44:07.894Z,3.00
2023-03-17T13:54:28.260Z,3.00
2023-03-17T14:04:59.932Z,2.57
2023-03-17T14:15:20.046Z,2.70
2023-03-17T14:25:33.542Z,3.43
2023-03-17T14:35:39.422Z,2.88
2023-03-17T14:45:49.420Z,3.07
2023-03-17T14:55:54.289Z,2.87
2023-03-17T15:06:26.119Z,5.07
2023-03-17T15:16:30.895Z,2.77
2023-03-17T15:26:33.563Z,3.30
2023-03-17T15:36:36.687Z,3.53
2023-03-17T15:46:39.320Z,2.00
2023-03-17T15:56:43.276Z,1.87
2023-03-17T16:06:47.946Z,3.73
2023-03-17T16:16:50.669Z,3.70
2023-03-17T16:26:53.734Z,4.27
2023-03-17T16:36:56.735Z,4.30
2023-03-17T16:46:59.223Z,3.92
2023-03-17T16:57:02.045Z,4.10
2023-03-17T17:07:04.485Z,3.30
2023-03-17T17:17:07.599Z,8.10
2023-03-17T17:27:10.726Z,7.03
2023-03-17T17:37:13.569Z,6.83
2023-03-17T17:47:16.255Z,8.30
2023-03-17T17:57:19.376Z,6.47
2023-03-17T18:07:22.145Z,19.07
2023-03-17T18:17:25.258Z,9.07
2023-03-17T18:27:28.167Z,9.57
2023-03-17T18:37:32.516Z,4.77
2023-03-17T18:47:36.698Z,3.27
2023-03-17T18:57:40.298Z,2.15
2023-03-17T19:07:45.946Z,1.83
2023-03-17T19:17:50.382Z,2.93
2023-03-17T19:27:53.793Z,2.70
2023-03-17T19:37:56.504Z,1.67
2023-03-17T19:47:59.944Z,2.50
2023-03-17T19:58:04.531Z,3.07
2023-03-17T20:08:07.941Z,1.70
2023-03-17T20:18:11.122Z,2.43
2023-03-17T20:28:14.165Z,1.50
2023-03-17T20:38:17.187Z,1.55
2023-03-17T20:48:19.983Z,1.20
2023-03-17T20:58:23.176Z,1.40
2023-03-17T21:08:26.123Z,1.37
2023-03-17T21:18:29.790Z,1.63
2023-03-17T21:28:32.346Z,1.93
2023-03-17T21:38:35.838Z,2.30
2023-03-17T21:48:38.928Z,1.55
2023-03-17T21:58:41.550Z,1.67
2023-03-17T22:08:45.808Z,1.37
2023-03-17T22:18:48.734Z,2.03
2023-03-17T22:28:51.398Z,1.43
2023-03-17T22:38:54.279Z,1.60
2023-03-17T22:48:56.795Z,1.53
2023-03-17T22:58:59.285Z,1.50
2023-03-17T23:09:04.836Z,1.70
2023-03-17T23:19:07.457Z,1.60
2023-03-17T23:29:11.825Z,1.50
2023-03-17T23:39:14.658Z,1.60
2023-03-17T23:49:17.446Z,2.00
2023-03-17T23:59:20.669Z,1.65
